Time;durP1;ratioP1;P1;durP2;ratioP2;P2;SDS_P1;SDS_P2;PMS_P1;PMS_P2;Temp;Humidity;BMP_temperature;BMP_pressure;BME280_temperature;BME280_humidity;BME280_pressure;Samples;Min_cycle;Max_cycle;Signal;HPM_P1;HPM_P2
2022/05/17 00:00:46;;;;;;;21.33;7.93;;;14.50;99.90;;;;;;5056622;28;20119;-75
2022/05/17 00:03:11;;;;;;;18.55;7.57;;;14.50;99.90;;;;;;5074265;28;20048;-76
2022/05/17 00:05:37;;;;;;;21.17;8.10;;;14.40;99.90;;;;;;5074030;28;20448;-75
2022/05/17 00:08:03;;;;;;;20.90;8.73;;;14.40;99.90;;;;;;5056679;28;20119;-75
2022/05/17 00:10:29;;;;;;;24.63;8.77;;;14.40;99.90;;;;;;5074230;28;20080;-73
2022/05/17 00:12:55;;;;;;;16.58;7.90;;;14.30;99.90;;;;;;5074130;28;20047;-74
2022/05/17 00:15:22;;;;;;;20.85;8.88;;;14.30;99.90;;;;;;5073381;28;20040;-74
2022/05/17 00:17:50;;;;;;;23.83;8.30;;;14.30;99.90;;;;;;5056437;28;20044;-74
2022/05/17 00:20:16;;;;;;;22.70;8.75;;;14.30;99.90;;;;;;5073713;28;20449;-75
2022/05/17 00:22:43;;;;;;;19.98;8.38;;;14.20;99.90;;;;;;5073577;28;20048;-73
2022/05/17 00:25:11;;;;;;;25.23;8.13;;;14.20;99.90;;;;;;5073810;28;20131;-74
2022/05/17 00:27:37;;;;;;;18.92;8.45;;;14.20;99.90;;;;;;5073426;28;20182;-77
2022/05/17 00:30:06;;;;;;;22.30;8.68;;;14.20;99.90;;;;;;5073689;28;20048;-75
2022/05/17 00:32:32;;;;;;;25.63;9.00;;;14.20;99.90;;;;;;5056078;28;20059;-74
2022/05/17 00:34:58;;;;;;;23.25;9.35;;;14.10;99.90;;;;;;5073563;28;20173;-75
2022/05/17 00:37:24;;;;;;;23.40;8.98;;;14.10;99.90;;;;;;5073621;28;20429;-75
2022/05/17 00:39:50;;;;;;;23.50;8.90;;;14.20;99.90;;;;;;5073555;28;20127;-74
2022/05/17 00:42:16;;;;;;;19.67;8.43;;;14.10;99.90;;;;;;5073654;28;20048;-75
2022/05/17 00:44:45;;;;;;;20.20;8.90;;;14.10;99.90;;;;;;5055790;28;20515;-75
2022/05/17 00:47:16;;;;;;;22.00;9.02;;;14.10;99.90;;;;;;5073377;28;20343;-74
2022/05/17 00:49:48;;;;;;;21.90;9.23;;;14.10;99.90;;;;;;5073225;28;20037;-75
2022/05/17 00:52:21;;;;;;;24.75;8.82;;;14.00;99.90;;;;;;5073229;28;20066;-77
2022/05/17 00:54:47;;;;;;;26.67;9.75;;;14.00;99.90;;;;;;5073197;28;20055;-73
2022/05/17 00:57:22;;;;;;;24.60;8.52;;;14.00;99.90;;;;;;5055589;28;20040;-74
2022/05/17 00:59:49;;;;;;;19.55;8.55;;;14.00;99.90;;;;;;5055371;28;20174;-74
2022/05/17 01:02:15;;;;;;;20.58;8.43;;;14.00;99.90;;;;;;5072665;28;20070;-74
2022/05/17 01:04:41;;;;;;;21.83;9.45;;;13.90;99.90;;;;;;5072991;28;20119;-73
2022/05/17 01:07:20;;;;;;;25.48;10.02;;;13.90;99.90;;;;;;5055182;28;20040;-74
2022/05/17 01:09:45;;;;;;;19.50;8.68;;;13.90;99.90;;;;;;5072821;28;20040;-76
2022/05/17 01:12:11;;;;;;;25.55;9.88;;;13.90;99.90;;;;;;5072627;28;20052;-74
2022/05/17 01:14:57;;;;;;;21.83;8.95;;;13.90;99.90;;;;;;5055167;28;20392;-74
2022/05/17 01:17:28;;;;;;;17.60;8.27;;;13.80;99.90;;;;;;5055343;28;20489;-75
2022/05/17 01:19:54;;;;;;;19.40;8.68;;;13.80;99.90;;;;;;5055290;28;20049;-74
2022/05/17 01:22:21;;;;;;;22.25;9.48;;;13.70;99.90;;;;;;5072581;28;20359;-74
2022/05/17 01:24:47;;;;;;;21.92;9.23;;;13.70;99.90;;;;;;5072598;28;20041;-74
2022/05/17 01:27:36;;;;;;;24.55;10.60;;;13.60;99.90;;;;;;5054827;28;20110;-74
2022/05/17 01:30:04;;;;;;;21.70;9.32;;;13.50;99.90;;;;;;5055160;28;20169;-75
2022/05/17 01:32:30;;;;;;;24.33;9.80;;;13.50;99.90;;;;;;5072537;28;20052;-77
2022/05/17 01:34:56;;;;;;;23.17;9.50;;;13.50;99.90;;;;;;5072394;28;20036;-74
2022/05/17 01:37:21;;;;;;;25.95;10.85;;;13.50;99.90;;;;;;5072498;28;20071;-76
2022/05/17 01:39:47;;;;;;;24.52;10.23;;;13.40;99.90;;;;;;5071633;28;20119;-77
2022/05/17 01:42:14;;;;;;;23.55;9.63;;;13.40;99.90;;;;;;5055020;28;20051;-74
2022/05/17 01:44:43;;;;;;;29.92;11.38;;;13.30;99.90;;;;;;5055052;28;20076;-75
2022/05/17 01:47:11;;;;;;;26.70;10.20;;;13.30;99.90;;;;;;5072418;28;20080;-75
2022/05/17 01:49:37;;;;;;;20.60;10.88;;;13.30;99.90;;;;;;5054897;28;20044;-75
2022/05/17 01:52:03;;;;;;;21.17;10.65;;;13.20;99.90;;;;;;5071979;28;20479;-74
2022/05/17 01:54:29;;;;;;;24.67;11.57;;;13.20;99.90;;;;;;5072720;28;20028;-74
2022/05/17 01:56:54;;;;;;;20.00;10.13;;;13.10;99.90;;;;;;5072300;28;20094;-76
2022/05/17 01:59:20;;;;;;;21.23;9.80;;;13.10;99.90;;;;;;5054975;28;20052;-73
2022/05/17 02:01:46;;;;;;;19.20;9.40;;;13.10;99.90;;;;;;5054598;28;20449;-74
2022/05/17 02:04:14;;;;;;;26.95;11.80;;;13.10;99.90;;;;;;5072380;28;20159;-74
2022/05/17 02:06:39;;;;;;;35.33;12.18;;;13.00;99.90;;;;;;5072068;28;20132;-76
2022/05/17 02:09:05;;;;;;;23.98;11.23;;;13.00;99.90;;;;;;5072136;28;20127;-75
2022/05/17 02:11:31;;;;;;;19.92;11.05;;;13.00;99.90;;;;;;5072230;28;20361;-75
2022/05/17 02:13:57;;;;;;;24.55;10.73;;;12.90;99.90;;;;;;5072179;28;20117;-75
2022/05/17 02:16:23;;;;;;;31.33;11.55;;;12.90;99.90;;;;;;5071991;28;20101;-75
2022/05/17 02:18:50;;;;;;;20.92;10.77;;;12.80;99.90;;;;;;5071982;28;20040;-74
2022/05/17 02:21:16;;;;;;;28.25;11.07;;;12.70;99.90;;;;;;5071981;28;20047;-75
2022/05/17 02:23:42;;;;;;;24.98;12.27;;;12.70;99.90;;;;;;5054381;28;20049;-75
2022/05/17 02:26:08;;;;;;;22.05;12.32;;;12.70;99.90;;;;;;5071996;28;20063;-75
2022/05/17 02:28:35;;;;;;;27.45;13.88;;;12.70;99.90;;;;;;5072054;28;20048;-74
2022/05/17 02:31:01;;;;;;;21.33;11.80;;;12.70;99.90;;;;;;5071529;28;20048;-75
2022/05/17 02:33:27;;;;;;;22.67;11.85;;;12.70;99.90;;;;;;5071825;28;20100;-75
2022/05/17 02:35:53;;;;;;;24.63;13.50;;;12.70;99.90;;;;;;5071478;28;20466;-75
2022/05/17 02:38:19;;;;;;;25.67;13.02;;;12.60;99.90;;;;;;5072004;28;20048;-76
2022/05/17 02:40:45;;;;;;;26.05;13.65;;;12.60;99.90;;;;;;5054274;28;20040;-75
2022/05/17 02:43:13;;;;;;;26.05;12.50;;;12.60;99.90;;;;;;5072040;28;20110;-75
2022/05/17 02:45:39;;;;;;;29.35;13.32;;;12.60;99.90;;;;;;5054129;28;20441;-75
2022/05/17 02:48:05;;;;;;;28.45;13.90;;;12.60;99.90;;;;;;5071692;28;20053;-75
2022/05/17 02:50:32;;;;;;;26.48;13.52;;;12.50;99.90;;;;;;5073126;28;20048;-74
2022/05/17 02:52:58;;;;;;;20.67;11.77;;;12.50;99.90;;;;;;5075550;28;20036;-75
2022/05/17 02:55:24;;;;;;;26.80;12.98;;;12.50;99.90;;;;;;5075410;28;20037;-74
2022/05/17 02:57:50;;;;;;;22.10;11.13;;;12.50;99.90;;;;;;5075501;28;20115;-74
2022/05/17 03:00:17;;;;;;;25.67;13.38;;;12.40;99.90;;;;;;5057901;28;20653;-74
2022/05/17 03:02:44;;;;;;;30.30;14.15;;;12.40;99.90;;;;;;5057952;28;20051;-74
2022/05/17 03:05:11;;;;;;;31.02;14.23;;;12.30;99.90;;;;;;5075302;28;20048;-74
2022/05/17 03:07:38;;;;;;;27.90;14.88;;;12.30;99.90;;;;;;5057680;28;20045;-75
2022/05/17 03:10:05;;;;;;;29.08;14.80;;;12.30;99.90;;;;;;5075399;28;20059;-76
2022/05/17 03:12:30;;;;;;;26.48;13.88;;;12.30;99.90;;;;;;5075061;28;20052;-76
2022/05/17 03:14:59;;;;;;;35.95;13.63;;;12.30;99.90;;;;;;5057617;28;20465;-74
2022/05/17 03:17:25;;;;;;;23.75;12.75;;;12.20;99.90;;;;;;5074736;28;20438;-75
2022/05/17 03:19:53;;;;;;;33.13;14.75;;;12.20;99.90;;;;;;5075047;28;20055;-74
2022/05/17 03:22:19;;;;;;;25.13;12.82;;;12.20;99.90;;;;;;5073672;28;20111;-75
2022/05/17 03:24:45;;;;;;;25.42;14.90;;;12.20;99.90;;;;;;5055025;28;20446;-74
2022/05/17 03:27:11;;;;;;;30.67;13.50;;;12.20;99.90;;;;;;5054932;28;20466;-74
2022/05/17 03:29:36;;;;;;;30.30;13.73;;;12.20;99.90;;;;;;5054897;28;20120;-75
2022/05/17 03:32:03;;;;;;;31.55;14.10;;;12.10;99.90;;;;;;5054621;28;20626;-74
2022/05/17 03:34:29;;;;;;;24.63;12.73;;;12.10;99.90;;;;;;5054552;28;20127;-74
2022/05/17 03:36:54;;;;;;;26.88;11.82;;;12.10;99.90;;;;;;5054597;28;20088;-75
2022/05/17 03:39:20;;;;;;;22.42;10.90;;;12.20;99.90;;;;;;5054651;28;20069;-74
2022/05/17 03:41:46;;;;;;;21.90;11.05;;;12.20;99.90;;;;;;5054656;28;20056;-74
2022/05/17 03:44:11;;;;;;;24.42;12.45;;;12.20;99.90;;;;;;5054674;28;20047;-74
2022/05/17 03:46:38;;;;;;;22.67;12.70;;;12.20;99.90;;;;;;5037075;28;20048;-75
2022/05/17 03:49:03;;;;;;;24.15;12.75;;;12.20;99.90;;;;;;5054429;28;20059;-75
2022/05/17 03:51:29;;;;;;;24.67;13.20;;;12.30;99.90;;;;;;5054430;28;20040;-74
2022/05/17 03:53:55;;;;;;;31.80;13.93;;;12.30;99.90;;;;;;5054429;28;20049;-74
2022/05/17 03:56:21;;;;;;;23.98;12.43;;;12.30;99.90;;;;;;5047531;28;20055;-77
2022/05/17 03:58:47;;;;;;;24.38;12.70;;;12.30;99.90;;;;;;5036757;28;20055;-75
2022/05/17 04:01:13;;;;;;;24.75;12.88;;;12.30;99.90;;;;;;5036567;28;20045;-75
2022/05/17 04:03:40;;;;;;;24.27;13.32;;;12.40;99.90;;;;;;5053459;28;20045;-75
2022/05/17 04:06:06;;;;;;;34.70;13.93;;;12.40;99.90;;;;;;5054287;28;20053;-76
2022/05/17 04:08:32;;;;;;;24.33;12.30;;;12.40;99.90;;;;;;5036544;28;20041;-74
2022/05/17 04:10:58;;;;;;;29.65;12.80;;;12.50;99.90;;;;;;5054147;28;20044;-74
2022/05/17 04:13:29;;;;;;;23.85;11.77;;;12.50;99.90;;;;;;5053772;28;20051;-74
2022/05/17 04:15:56;;;;;;;24.65;13.20;;;12.50;99.90;;;;;;5036406;28;20048;-76
2022/05/17 04:18:21;;;;;;;26.52;12.73;;;12.60;99.90;;;;;;5036375;28;20064;-75
2022/05/17 04:20:47;;;;;;;24.40;13.23;;;12.60;99.90;;;;;;5053925;28;20048;-74
2022/05/17 04:23:13;;;;;;;23.15;12.60;;;12.70;99.90;;;;;;5061815;28;20454;-74
2022/05/17 04:25:39;;;;;;;22.42;12.98;;;12.80;99.90;;;;;;5073931;28;20143;-75
2022/05/17 04:28:04;;;;;;;28.55;12.70;;;12.90;99.90;;;;;;5073305;28;20465;-73
2022/05/17 04:30:30;;;;;;;24.20;13.35;;;13.00;99.90;;;;;;5073298;28;20424;-75
2022/05/17 04:32:56;;;;;;;29.88;13.68;;;13.10;99.90;;;;;;5073485;28;20119;-75
2022/05/17 04:35:22;;;;;;;28.52;13.32;;;13.20;99.90;;;;;;5073488;28;20452;-75
2022/05/17 04:37:48;;;;;;;24.23;11.80;;;13.30;99.90;;;;;;5073607;28;20055;-76
2022/05/17 04:40:14;;;;;;;25.50;11.30;;;13.50;99.90;;;;;;5056122;28;20060;-74
2022/05/17 04:42:43;;;;;;;26.40;11.82;;;13.50;99.90;;;;;;5073309;28;20048;-76
2022/05/17 04:45:13;;;;;;;23.63;11.32;;;13.70;99.90;;;;;;5055747;28;20052;-74
2022/05/17 04:47:40;;;;;;;21.25;11.05;;;13.80;99.90;;;;;;5055920;28;20370;-73
2022/05/17 04:50:06;;;;;;;24.88;10.45;;;13.90;99.90;;;;;;5073258;28;20044;-75
2022/05/17 04:52:32;;;;;;;24.23;11.30;;;14.10;99.90;;;;;;5073146;28;20047;-74
2022/05/17 04:54:58;;;;;;;19.90;10.45;;;14.20;99.90;;;;;;5073134;28;20343;-74
2022/05/17 04:57:24;;;;;;;17.77;9.93;;;14.40;99.90;;;;;;5073022;28;20088;-75
2022/05/17 04:59:50;;;;;;;16.77;10.30;;;14.50;99.90;;;;;;5072950;28;20438;-74
2022/05/17 05:02:15;;;;;;;18.15;9.40;;;14.70;99.90;;;;;;5072589;28;20131;-76
2022/05/17 05:04:41;;;;;;;17.70;9.77;;;14.80;99.90;;;;;;5073126;28;20083;-75
2022/05/17 05:07:07;;;;;;;19.80;9.48;;;14.90;99.90;;;;;;5073099;28;20377;-75
2022/05/17 05:09:33;;;;;;;20.30;9.10;;;15.00;99.90;;;;;;5055474;28;20115;-74
2022/05/17 05:12:00;;;;;;;18.02;9.20;;;15.10;99.90;;;;;;5072604;28;20189;-75
2022/05/17 05:14:26;;;;;;;21.00;8.73;;;15.20;99.90;;;;;;5055083;28;20048;-75
2022/05/17 05:16:52;;;;;;;22.27;8.95;;;15.30;99.90;;;;;;5072831;28;20079;-75
2022/05/17 05:19:18;;;;;;;19.55;8.15;;;15.30;99.90;;;;;;5055231;28;20123;-76
2022/05/17 05:21:45;;;;;;;14.80;8.10;;;15.40;99.90;;;;;;5072886;28;20049;-75
2022/05/17 05:24:11;;;;;;;17.58;7.65;;;15.40;99.90;;;;;;5054333;28;20474;-75
2022/05/17 05:26:38;;;;;;;15.75;8.10;;;15.50;99.90;;;;;;5072303;28;20054;-75
2022/05/17 05:29:05;;;;;;;14.70;7.60;;;15.50;99.90;;;;;;5072751;28;20056;-76
2022/05/17 05:31:31;;;;;;;12.68;7.22;;;15.50;99.90;;;;;;5072093;28;20040;-75
2022/05/17 05:34:00;;;;;;;14.75;7.90;;;15.60;99.90;;;;;;5072345;28;20060;-74
2022/05/17 05:36:29;;;;;;;16.48;7.97;;;15.60;99.90;;;;;;5069942;28;20186;-74
2022/05/17 05:38:55;;;;;;;14.38;7.45;;;15.70;99.90;;;;;;5072414;28;20040;-75
2022/05/17 05:41:22;;;;;;;17.80;6.68;;;15.70;99.90;;;;;;5073020;28;20071;-76
2022/05/17 05:43:47;;;;;;;16.63;7.03;;;15.80;99.90;;;;;;5057179;28;20373;-75
2022/05/17 05:46:13;;;;;;;16.17;6.57;;;15.90;99.90;;;;;;5054969;28;20076;-75
2022/05/17 05:48:39;;;;;;;17.27;6.60;;;15.90;99.90;;;;;;5072458;28;20082;-75
2022/05/17 05:51:05;;;;;;;15.63;5.72;;;16.00;99.90;;;;;;5072466;28;20048;-76
2022/05/17 05:53:31;;;;;;;16.77;6.32;;;16.00;99.90;;;;;;5072252;28;20047;-76
2022/05/17 05:56:02;;;;;;;15.77;5.97;;;16.20;99.90;;;;;;5069176;28;20127;-75
2022/05/17 05:58:30;;;;;;;18.38;6.82;;;16.20;99.90;;;;;;5055120;28;20044;-76
2022/05/17 06:00:56;;;;;;;13.25;5.03;;;16.30;99.90;;;;;;5074245;28;20863;-73
2022/05/17 06:03:22;;;;;;;11.90;6.05;;;16.40;99.90;;;;;;5073382;28;20115;-74
2022/05/17 06:05:48;;;;;;;12.40;5.90;;;16.50;99.90;;;;;;5073913;28;20083;-74
2022/05/17 06:08:15;;;;;;;14.13;6.13;;;16.50;99.90;;;;;;5073116;28;20044;-74
2022/05/17 06:10:41;;;;;;;18.80;5.35;;;16.60;99.90;;;;;;5073283;28;20080;-74
2022/05/17 06:13:13;;;;;;;12.88;6.22;;;16.70;99.90;;;;;;5055532;28;20056;-74
2022/05/17 06:15:40;;;;;;;16.75;5.63;;;16.70;99.90;;;;;;5072775;28;20044;-73
2022/05/17 06:18:07;;;;;;;16.92;6.07;;;16.80;99.90;;;;;;5072759;28;20049;-76
2022/05/17 06:20:33;;;;;;;12.40;5.50;;;16.80;99.90;;;;;;5073830;28;20335;-76
2022/05/17 06:22:59;;;;;;;14.27;5.45;;;16.90;99.90;;;;;;5055994;28;20090;-75
2022/05/17 06:25:24;;;;;;;16.48;6.38;;;17.00;99.90;;;;;;5073838;28;20080;-76
2022/05/17 06:27:51;;;;;;;13.80;5.70;;;17.20;99.90;;;;;;5077273;28;20048;-75
2022/05/17 06:30:17;;;;;;;13.38;5.57;;;17.20;99.90;;;;;;5076237;28;20048;-76
2022/05/17 06:32:43;;;;;;;13.02;6.20;;;17.20;99.90;;;;;;5058428;28;20071;-76
2022/05/17 06:35:10;;;;;;;11.73;4.90;;;17.20;99.90;;;;;;5075868;28;20698;-75
2022/05/17 06:37:37;;;;;;;13.63;5.32;;;17.40;99.90;;;;;;5058277;28;20060;-75
2022/05/17 06:40:04;;;;;;;11.75;4.88;;;17.60;99.90;;;;;;5075715;28;20040;-76
2022/05/17 06:42:30;;;;;;;17.65;5.45;;;17.90;99.90;;;;;;5075814;28;20037;-78
2022/05/17 06:44:56;;;;;;;15.02;5.10;;;18.10;99.90;;;;;;5058191;28;20074;-76
2022/05/17 06:47:22;;;;;;;13.75;5.72;;;18.20;99.90;;;;;;5075840;28;20048;-74
2022/05/17 06:49:48;;;;;;;12.10;4.50;;;18.40;99.90;;;;;;5057435;28;20468;-77
2022/05/17 06:52:14;;;;;;;12.80;5.07;;;18.70;99.90;;;;;;5057828;28;20137;-75
2022/05/17 06:54:41;;;;;;;10.07;4.43;;;18.90;99.90;;;;;;5071971;28;20048;-76
2022/05/17 06:57:09;;;;;;;13.95;4.93;;;19.10;99.90;;;;;;5075238;28;20040;-75
2022/05/17 06:59:37;;;;;;;12.65;4.70;;;19.20;99.90;;;;;;5075275;28;20072;-77
2022/05/17 07:02:04;;;;;;;16.05;4.82;;;19.10;99.90;;;;;;5057930;28;20067;-75
2022/05/17 07:04:32;;;;;;;12.32;4.40;;;19.10;99.90;;;;;;5075147;28;20048;-75
2022/05/17 07:06:58;;;;;;;16.73;5.13;;;19.20;99.90;;;;;;5075270;28;20045;-76
2022/05/17 07:09:26;;;;;;;10.48;4.25;;;19.40;99.90;;;;;;5075358;28;20044;-76
2022/05/17 07:14:37;;;;;;;14.18;4.55;;;19.90;99.90;;;;;;5057564;28;20457;-77
2022/05/17 07:17:15;;;;;;;10.30;4.32;;;20.10;99.90;;;;;;5075222;28;20045;-75
2022/05/17 07:19:42;;;;;;;11.52;4.35;;;20.30;99.90;;;;;;5074840;28;20445;-76
2022/05/17 07:22:08;;;;;;;12.77;4.38;;;20.30;99.90;;;;;;5074838;28;20032;-75
2022/05/17 07:24:34;;;;;;;11.52;3.90;;;20.40;99.90;;;;;;5057006;28;20049;-76
2022/05/17 07:27:00;;;;;;;11.60;4.13;;;20.60;99.90;;;;;;5057528;28;20051;-76
2022/05/17 07:29:27;;;;;;;8.23;3.72;;;20.70;99.90;;;;;;5074960;28;20052;-75
2022/05/17 07:31:53;;;;;;;16.30;4.78;;;20.80;99.90;;;;;;5074721;28;20502;-76
2022/05/17 07:34:18;;;;;;;10.68;4.15;;;20.90;99.90;;;;;;5057025;28;20044;-76
2022/05/17 07:36:45;;;;;;;10.25;4.35;;;21.10;99.90;;;;;;5055055;28;20048;-76
2022/05/17 07:39:12;;;;;;;13.18;4.25;;;21.10;99.90;;;;;;5055983;28;20060;-76
2022/05/17 07:41:38;;;;;;;10.52;4.07;;;21.20;99.90;;;;;;5074826;28;20036;-76
2022/05/17 07:44:04;;;;;;;12.43;4.65;;;21.40;99.90;;;;;;5074199;28;20128;-75
2022/05/17 07:46:31;;;;;;;9.63;4.50;;;21.60;99.90;;;;;;5074583;28;20147;-76
2022/05/17 07:48:57;;;;;;;11.90;4.13;;;21.70;99.90;;;;;;5074534;28;20064;-76
2022/05/17 07:51:22;;;;;;;9.80;4.70;;;22.00;99.90;;;;;;5074583;28;20048;-76
2022/05/17 07:53:48;;;;;;;10.23;3.80;;;22.10;99.90;;;;;;5074482;28;20460;-76
2022/05/17 07:56:14;;;;;;;14.35;4.97;;;22.10;99.90;;;;;;5056758;28;20133;-76
2022/05/17 07:58:41;;;;;;;8.68;3.55;;;22.20;99.90;;;;;;5074425;28;20080;-77
2022/05/17 08:01:07;;;;;;;12.10;4.65;;;22.40;99.90;;;;;;5056813;28;20045;-75
2022/05/17 08:03:33;;;;;;;14.07;4.03;;;22.70;99.90;;;;;;5074189;28;20040;-75
2022/05/17 08:05:59;;;;;;;11.13;3.65;;;22.70;99.90;;;;;;5056654;28;20133;-77
2022/05/17 08:08:25;;;;;;;13.88;4.50;;;22.80;99.90;;;;;;5056701;28;20048;-77
2022/05/17 08:10:51;;;;;;;12.27;4.45;;;22.90;99.90;;;;;;5076700;28;20040;-77
2022/05/17 08:13:19;;;;;;;13.85;4.55;;;22.90;99.90;;;;;;5094280;28;20044;-77
2022/05/17 08:15:45;;;;;;;9.13;3.70;;;23.00;99.90;;;;;;5094032;28;20441;-79
2022/05/17 08:18:11;;;;;;;9.77;3.17;;;23.00;99.90;;;;;;5094309;28;20040;-77
2022/05/17 08:20:37;;;;;;;13.05;3.67;;;23.10;99.90;;;;;;5094262;28;20047;-77
2022/05/17 08:23:05;;;;;;;10.10;2.97;;;23.20;99.90;;;;;;5094161;28;20052;-76
2022/05/17 08:28:17;;;;;;;9.95;3.50;;;23.90;99.90;;;;;;5093806;28;20063;-77
2022/05/17 08:30:44;;;;;;;8.45;3.15;;;24.20;99.90;;;;;;5093970;28;20118;-77
2022/05/17 08:33:16;;;;;;;11.23;3.22;;;24.30;99.90;;;;;;5093435;28;20044;-77
2022/05/17 08:35:52;;;;;;;10.55;2.78;;;24.40;99.90;;;;;;5093827;28;20063;-79
2022/05/17 08:38:25;;;;;;;8.60;2.78;;;24.50;99.90;;;;;;5093719;28;20457;-78
2022/05/17 08:41:06;;;;;;;10.50;3.72;;;24.70;99.90;;;;;;5069677;28;20127;-77
2022/05/17 08:43:41;;;;;;;9.23;3.08;;;24.80;99.90;;;;;;5073430;28;20040;-77
2022/05/17 08:46:17;;;;;;;12.85;3.35;;;24.90;99.90;;;;;;5073501;28;20378;-75
2022/05/17 08:48:50;;;;;;;7.00;2.70;;;25.00;99.90;;;;;;5072877;28;20050;-78
2022/05/17 08:51:24;;;;;;;9.85;3.05;;;25.20;99.90;;;;;;5073173;28;20041;-76
2022/05/17 08:53:50;;;;;;;9.45;2.70;;;25.30;99.80;;;;;;5073216;28;20044;-77
2022/05/17 08:56:16;;;;;;;7.80;3.00;;;25.30;98.00;;;;;;5073211;28;20110;-77
2022/05/17 08:58:46;;;;;;;13.13;3.28;;;25.10;97.50;;;;;;5073304;28;20036;-77
2022/05/17 09:01:31;;;;;;;6.43;1.90;;;25.10;98.20;;;;;;5055600;28;20051;-77
2022/05/17 09:04:12;;;;;;;6.13;2.33;;;25.30;98.10;;;;;;5070566;28;20048;-77
2022/05/17 09:06:50;;;;;;;8.77;2.70;;;25.50;96.20;;;;;;5073071;28;20045;-76
2022/05/17 09:09:25;;;;;;;7.57;2.20;;;25.50;95.10;;;;;;5073207;28;20366;-77
2022/05/17 09:12:09;;;;;;;7.57;1.88;;;25.40;94.90;;;;;;5066501;28;20555;-77
2022/05/17 09:14:41;;;;;;;8.63;2.17;;;25.40;93.70;;;;;;5072681;28;20464;-77
2022/05/17 09:17:12;;;;;;;6.18;1.60;;;25.60;92.90;;;;;;5072708;28;20052;-77
2022/05/17 09:19:38;;;;;;;8.73;2.50;;;25.60;91.50;;;;;;5072955;28;20048;-76
2022/05/17 09:22:06;;;;;;;8.48;2.08;;;25.40;89.30;;;;;;5068887;28;20050;-75
2022/05/17 09:24:55;;;;;;;13.18;2.85;;;25.10;91.40;;;;;;5053672;28;20053;-76
2022/05/17 09:27:45;;;;;;;7.40;1.85;;;24.90;91.10;;;;;;5034505;28;20084;-76
2022/05/17 09:30:35;;;;;;;5.95;1.80;;;24.60;90.90;;;;;;5052791;28;20388;-77
2022/05/17 09:33:11;;;;;;;7.00;1.80;;;24.30;92.50;;;;;;5052768;28;20052;-77
2022/05/17 09:35:43;;;;;;;7.45;1.88;;;24.20;92.00;;;;;;5034981;28;20107;-77
2022/05/17 09:38:09;;;;;;;7.35;1.83;;;24.00;94.00;;;;;;5052687;28;20040;-75
2022/05/17 09:40:38;;;;;;;7.90;1.80;;;24.20;94.50;;;;;;5035088;28;20051;-76
2022/05/17 09:43:09;;;;;;;9.23;2.30;;;24.30;92.10;;;;;;5052648;28;20045;-76
2022/05/17 09:45:49;;;;;;;6.68;2.55;;;24.10;92.30;;;;;;5052253;28;20056;-77
2022/05/17 09:48:31;;;;;;;8.30;1.80;;;24.00;91.40;;;;;;5051816;28;20060;-77
2022/05/17 09:53:43;;;;;;;7.40;1.83;;;24.00;88.40;;;;;;5052187;28;20055;-76
2022/05/17 09:56:09;;;;;;;7.18;2.00;;;24.30;90.60;;;;;;5052132;28;20045;-77
2022/05/17 09:58:38;;;;;;;9.70;2.28;;;24.50;90.70;;;;;;5035027;28;20462;-77
2022/05/17 10:01:16;;;;;;;6.50;1.83;;;24.80;92.10;;;;;;5050599;28;20053;-79
2022/05/17 10:03:58;;;;;;;9.00;2.33;;;25.30;90.00;;;;;;5052117;28;20450;-79
2022/05/17 10:06:29;;;;;;;8.93;2.15;;;25.60;85.40;;;;;;5052036;28;20068;-79
2022/05/17 10:09:11;;;;;;;7.13;1.77;;;25.70;83.50;;;;;;5028883;28;20075;-80
2022/05/17 10:12:07;;;;;;;9.07;2.58;;;25.90;83.00;;;;;;5052093;28;20335;-79
2022/05/17 10:14:49;;;;;;;7.07;2.00;;;26.00;77.60;;;;;;5034243;28;20098;-78
2022/05/17 10:17:49;;;;;;;7.55;1.90;;;26.00;79.00;;;;;;5034596;28;20044;-78
2022/05/17 10:20:29;;;;;;;9.13;2.70;;;26.30;79.20;;;;;;5044559;28;20037;-78
2022/05/17 10:23:19;;;;;;;9.82;2.13;;;26.60;77.70;;;;;;5057130;28;20048;-77
2022/05/17 10:25:53;;;;;;;8.32;1.67;;;26.70;71.60;;;;;;5066541;28;20086;-79
2022/05/17 10:28:43;;;;;;;8.02;1.75;;;26.70;72.40;;;;;;5064686;28;20064;-78
2022/05/17 10:31:29;;;;;;;7.53;2.10;;;26.80;73.10;;;;;;5037742;28;20041;-78
2022/05/17 10:34:09;;;;;;;7.10;1.70;;;27.00;68.40;;;;;;5071819;28;20127;-79
2022/05/17 10:36:40;;;;;;;8.18;2.03;;;27.10;65.20;;;;;;5071872;28;20080;-78
2022/05/17 10:39:24;;;;;;;6.72;2.20;;;26.90;65.50;;;;;;5054253;28;20123;-78
2022/05/17 10:41:51;;;;;;;8.02;2.05;;;26.90;68.00;;;;;;5071764;28;20060;-78
2022/05/17 10:44:19;;;;;;;7.53;2.38;;;27.00;68.50;;;;;;5054127;28;20079;-78
2022/05/17 10:46:53;;;;;;;8.20;2.70;;;27.30;70.10;;;;;;5054129;28;20511;-80
2022/05/17 10:49:46;;;;;;;7.50;2.53;;;27.40;68.80;;;;;;5071813;28;20116;-77
2022/05/17 10:52:40;;;;;;;6.95;2.00;;;27.10;69.00;;;;;;5071413;28;20082;-78
2022/05/17 10:55:44;;;;;;;7.00;2.22;;;26.90;68.20;;;;;;5071513;28;20032;-80
2022/05/17 10:58:20;;;;;;;7.50;2.50;;;26.60;68.30;;;;;;4989450;28;20372;-77
2022/05/17 11:01:03;;;;;;;9.13;2.33;;;26.40;70.40;;;;;;5059259;28;20056;-77
2022/05/17 11:03:43;;;;;;;7.47;2.33;;;26.30;70.20;;;;;;5071359;28;20045;-79
2022/05/17 11:06:11;;;;;;;6.70;2.10;;;26.20;71.10;;;;;;5053893;28;20051;-78
2022/05/17 11:08:55;;;;;;;17.05;3.17;;;26.10;70.90;;;;;;5071379;28;20087;-78
2022/05/17 11:11:49;;;;;;;12.52;2.70;;;25.80;72.30;;;;;;5072227;28;20373;-77
2022/05/17 11:14:21;;;;;;;10.45;2.25;;;25.60;71.80;;;;;;5057372;28;20542;-80
2022/05/17 11:17:18;;;;;;;10.02;2.67;;;25.40;72.80;;;;;;5075033;28;20068;-79
2022/05/17 11:19:53;;;;;;;5.85;1.80;;;25.10;78.00;;;;;;5057416;28;20048;-77
2022/05/17 11:22:42;;;;;;;9.25;2.95;;;25.10;77.00;;;;;;5074520;28;20362;-76
2022/05/17 11:25:19;;;;;;;9.07;2.63;;;25.00;77.20;;;;;;5076504;28;20045;-76
2022/05/17 11:27:45;;;;;;;11.20;3.10;;;24.90;78.10;;;;;;5074696;28;20079;-77
2022/05/17 11:30:20;;;;;;;9.00;2.50;;;25.00;77.60;;;;;;5074722;28;20076;-76
2022/05/17 11:33:07;;;;;;;9.20;3.10;;;25.20;76.20;;;;;;5074539;28;20045;-77
2022/05/17 11:35:33;;;;;;;10.85;2.55;;;25.40;79.00;;;;;;5074468;28;20055;-77
2022/05/17 11:37:59;;;;;;;9.77;2.55;;;25.40;75.70;;;;;;5074672;28;20048;-76
2022/05/17 11:40:46;;;;;;;6.05;2.50;;;25.30;78.90;;;;;;5071356;28;20095;-76
2022/05/17 11:45:57;;;;;;;8.07;2.65;;;25.40;75.00;;;;;;5074371;28;20052;-78
2022/05/17 11:48:46;;;;;;;6.70;2.45;;;25.30;75.60;;;;;;5074204;28;20123;-76
2022/05/17 11:51:12;;;;;;;10.75;2.95;;;25.10;74.90;;;;;;5074539;28;20033;-75
2022/05/17 11:53:43;;;;;;;12.10;3.58;;;24.90;77.60;;;;;;5074137;28;20453;-77
2022/05/17 11:56:18;;;;;;;5.90;2.53;;;24.90;77.80;;;;;;5074351;28;20040;-76
2022/05/17 11:58:47;;;;;;;7.78;2.97;;;25.10;76.50;;;;;;5056652;28;20052;-76
2022/05/17 12:01:31;;;;;;;7.05;2.03;;;25.10;75.80;;;;;;5056800;28;20051;-76
2022/05/17 12:04:03;;;;;;;10.00;2.78;;;25.10;75.80;;;;;;5073818;28;20464;-77
2022/05/17 12:06:33;;;;;;;7.47;2.15;;;25.30;77.70;;;;;;5074229;28;20044;-78
2022/05/17 12:08:59;;;;;;;9.98;2.92;;;25.40;78.90;;;;;;5056266;28;20078;-77
2022/05/17 12:11:49;;;;;;;7.05;2.03;;;25.50;76.80;;;;;;5073853;28;20076;-77
2022/05/17 12:14:23;;;;;;;7.10;2.45;;;25.70;78.70;;;;;;5073849;28;20064;-76
2022/05/17 12:17:01;;;;;;;4.57;1.80;;;25.90;76.00;;;;;;5074121;28;20044;-77
2022/05/17 12:19:33;;;;;;;8.40;2.35;;;25.80;74.70;;;;;;5073581;28;20048;-79
2022/05/17 12:22:13;;;;;;;8.45;2.58;;;25.80;78.00;;;;;;5073836;28;20052;-78
2022/05/17 12:24:54;;;;;;;10.48;2.45;;;25.90;74.00;;;;;;5054766;28;20052;-77
2022/05/17 12:27:23;;;;;;;6.80;2.03;;;25.80;77.20;;;;;;5073726;28;20044;-78
2022/05/17 12:32:49;;;;;;;9.98;3.08;;;25.90;78.50;;;;;;5073587;28;20342;-78
2022/05/17 12:35:23;;;;;;;9.18;2.25;;;26.10;75.50;;;;;;5073594;28;20040;-76
2022/05/17 12:37:49;;;;;;;9.40;2.55;;;26.00;73.20;;;;;;5073656;28;20080;-77
2022/05/17 12:43:07;;;;;;;5.53;2.13;;;25.90;72.70;;;;;;5073396;28;20060;-76
2022/05/17 12:45:46;;;;;;;5.90;2.33;;;25.80;74.10;;;;;;5073452;28;20072;-76
2022/05/17 12:48:20;;;;;;;8.32;2.45;;;25.80;72.80;;;;;;5072789;28;20044;-78
2022/05/17 12:50:51;;;;;;;8.77;2.30;;;25.80;74.10;;;;;;5073160;28;20040;-77
2022/05/17 12:53:24;;;;;;;8.70;3.22;;;25.80;75.20;;;;;;5072571;28;20044;-77
2022/05/17 12:56:04;;;;;;;7.32;2.65;;;25.90;75.00;;;;;;5073209;28;20376;-77
2022/05/17 12:58:31;;;;;;;5.95;2.38;;;26.00;75.50;;;;;;5055511;28;20106;-78
2022/05/17 13:01:01;;;;;;;8.23;2.40;;;26.10;74.30;;;;;;5073034;28;20054;-76
2022/05/17 13:03:29;;;;;;;8.13;2.33;;;26.00;75.70;;;;;;5072930;28;20036;-78
2022/05/17 13:05:58;;;;;;;9.18;2.83;;;25.90;74.70;;;;;;5072896;28;20041;-77
2022/05/17 13:08:36;;;;;;;6.23;2.63;;;25.90;74.00;;;;;;5072996;28;20119;-76